Archival Weather

Ahwaz

Ahwaz, Iran (OIAW)

Report from: Sunday, October 1, 2023 12:30 PM +0330
Current time: Friday, July 19, 2024 5:56 AM +0330

Current weather – Weather history – Daily summaries
Weather forecast

Temperature36.0°C (96.8°F)
Heat index35.1°C (95.2°F)
Dew point13.0°C (55.4°F)
Winds 4 kts (2.1 m/s, 4.6 mph) Southeast (130°)
Clouds Sky clear
Altimeter29.80 in.Hg (1009 mB)
Relative humidity25 %
Density altitude2,730 ft. (832 m)
Remarks Ceiling and visibility OK
Flight conditions Visual Meteorological Conditions
Raw dataOIAW 010900Z 13004KT CAVOK 36/13 Q1009
An error has occurred. This application may no longer respond until reloaded. Reload 🗙